METAR Data
IDs: Format: Raw Decoded Include TAF

Data at: 1022 UTC 13 Aug 2022

LKPD 131000Z VRB03KT 9999 SCT034 23/15 Q1016 NOSIG RMK BLU BLU